createdAt,value
2023-05-24T00:01:35.443Z,12.92
2023-05-24T00:04:06.740Z,13.07
2023-05-24T00:06:40.160Z,13.11
2023-05-24T00:09:11.696Z,13.02
2023-05-24T00:11:42.355Z,13.01
2023-05-24T00:14:12.982Z,12.92
2023-05-24T00:16:43.606Z,12.95
2023-05-24T00:19:18.875Z,12.88
2023-05-24T00:21:52.417Z,12.87
2023-05-24T00:24:23.040Z,12.86
2023-05-24T00:26:53.765Z,12.88
2023-05-24T00:29:24.442Z,12.96
2023-05-24T00:31:55.152Z,13.06
2023-05-24T00:34:25.798Z,13.08
2023-05-24T00:36:59.325Z,13.10
2023-05-24T00:39:30.238Z,12.89
2023-05-24T00:42:01.435Z,12.90
2023-05-24T00:44:32.418Z,12.87
2023-05-24T00:47:04.005Z,12.96
2023-05-24T00:49:34.719Z,12.83
2023-05-24T00:52:09.374Z,12.95
2023-05-24T00:54:40.908Z,12.95
2023-05-24T00:57:14.114Z,12.94
2023-05-24T00:59:46.080Z,12.92
2023-05-24T01:02:17.207Z,12.98
2023-05-24T01:04:49.169Z,13.02
2023-05-24T01:07:30.732Z,13.11
2023-05-24T01:10:12.869Z,13.26
2023-05-24T01:12:53.948Z,13.37
2023-05-24T01:15:36.493Z,13.09
2023-05-24T01:18:14.053Z,12.89
2023-05-24T01:20:46.424Z,12.73
2023-05-24T01:23:34.481Z,12.85
2023-05-24T01:26:40.065Z,12.95
2023-05-24T01:29:16.412Z,12.99
2023-05-24T01:31:47.154Z,12.88
2023-05-24T01:34:17.906Z,12.94
2023-05-24T01:36:51.460Z,12.77
2023-05-24T01:39:23.251Z,12.90
2023-05-24T01:42:02.786Z,12.96
2023-05-24T01:44:42.941Z,12.83
2023-05-24T01:47:27.671Z,12.77
2023-05-24T01:50:01.829Z,12.61
2023-05-24T01:52:38.109Z,12.54
2023-05-24T01:55:10.878Z,12.30
2023-05-24T01:57:44.074Z,12.11
2023-05-24T02:00:21.573Z,12.03
2023-05-24T02:02:53.091Z,12.03
2023-05-24T02:05:25.139Z,11.94
2023-05-24T02:07:55.703Z,11.81
2023-05-24T02:10:27.790Z,11.73
2023-05-24T02:12:59.674Z,11.72
2023-05-24T02:15:33.222Z,11.75
2023-05-24T02:18:04.364Z,11.83
2023-05-24T02:20:37.039Z,11.89
2023-05-24T02:23:08.632Z,11.86
2023-05-24T02:25:41.083Z,11.95
2023-05-24T02:28:11.696Z,11.90
2023-05-24T02:30:45.205Z,12.00
2023-05-24T02:33:16.166Z,11.86
2023-05-24T02:35:46.818Z,11.94
2023-05-24T02:38:17.518Z,11.84
2023-05-24T02:40:48.456Z,11.96
2023-05-24T02:43:19.356Z,11.91
2023-05-24T02:45:52.659Z,11.79
2023-05-24T02:48:23.351Z,11.69
2023-05-24T02:50:54.251Z,11.73
2023-05-24T02:53:24.820Z,11.63
2023-05-24T02:55:56.523Z,11.43
2023-05-24T02:58:29.958Z,11.48
2023-05-24T03:01:04.490Z,11.66
2023-05-24T03:03:35.287Z,11.42
2023-05-24T03:06:07.265Z,11.45
2023-05-24T03:08:37.965Z,11.53
2023-05-24T03:11:09.119Z,11.48
2023-05-24T03:13:40.368Z,11.54
2023-05-24T03:16:14.004Z,11.54
2023-05-24T03:18:44.619Z,11.47
2023-05-24T03:21:15.277Z,11.34
2023-05-24T03:23:45.932Z,11.16
2023-05-24T03:26:17.126Z,11.03
2023-05-24T03:28:48.150Z,11.00
2023-05-24T03:31:24.340Z,11.03
2023-05-24T03:33:55.818Z,11.08
2023-05-24T03:36:28.169Z,11.21
2023-05-24T03:38:59.874Z,11.27
2023-05-24T03:41:31.225Z,11.26
2023-05-24T03:44:04.227Z,11.17
2023-05-24T03:46:37.993Z,11.09
2023-05-24T03:49:09.420Z,11.32
2023-05-24T03:51:41.702Z,11.40
2023-05-24T03:54:12.300Z,11.29
2023-05-24T03:56:45.063Z,11.19
2023-05-24T03:59:15.685Z,11.27
2023-05-24T04:01:49.105Z,11.31
2023-05-24T04:04:19.855Z,11.13
2023-05-24T04:06:50.996Z,11.22
2023-05-24T04:09:21.662Z,11.35
2023-05-24T04:11:52.632Z,11.28
2023-05-24T04:14:23.272Z,11.34
2023-05-24T04:16:57.668Z,11.47
2023-05-24T04:19:28.662Z,11.27
2023-05-24T04:21:59.989Z,11.37
2023-05-24T04:24:30.580Z,11.36
2023-05-24T04:27:01.829Z,11.44
2023-05-24T04:29:33.525Z,11.27
2023-05-24T04:32:06.988Z,11.23
2023-05-24T04:34:37.781Z,11.32
2023-05-24T04:37:08.665Z,11.44
2023-05-24T04:39:39.267Z,11.46
2023-05-24T04:42:10.776Z,11.36
2023-05-24T04:44:43.014Z,11.19
2023-05-24T04:47:17.747Z,11.12
2023-05-24T04:49:48.338Z,11.26
2023-05-24T04:52:19.133Z,11.42
2023-05-24T04:54:49.894Z,11.47
2023-05-24T04:57:20.759Z,11.37
2023-05-24T04:59:51.291Z,11.56
2023-05-24T05:02:26.643Z,11.53
2023-05-24T05:04:57.332Z,11.64
2023-05-24T05:07:27.965Z,11.69
2023-05-24T05:09:58.550Z,11.71
2023-05-24T05:12:29.128Z,11.60
2023-05-24T05:14:59.780Z,11.73
2023-05-24T05:17:32.973Z,11.78
2023-05-24T05:20:03.902Z,11.88
2023-05-24T05:22:34.675Z,11.83
2023-05-24T05:25:05.299Z,12.10
2023-05-24T05:27:35.869Z,12.25
2023-05-24T05:30:06.628Z,12.49
2023-05-24T05:32:40.248Z,12.51
2023-05-24T05:35:12.068Z,12.36
2023-05-24T05:37:42.640Z,12.60
2023-05-24T05:40:14.466Z,12.63
2023-05-24T05:42:47.348Z,12.73
2023-05-24T05:45:17.930Z,12.77
2023-05-24T05:47:51.591Z,12.69
2023-05-24T05:50:22.248Z,12.68
2023-05-24T05:52:52.864Z,12.75
2023-05-24T05:55:23.600Z,12.91
2023-05-24T05:57:54.219Z,12.98
2023-05-24T06:00:26.332Z,13.09
2023-05-24T06:02:59.758Z,13.40
2023-05-24T06:05:30.522Z,13.43
2023-05-24T06:08:01.327Z,13.28
2023-05-24T06:10:31.899Z,13.49
2023-05-24T06:13:04.542Z,13.61
2023-05-24T06:15:35.134Z,13.94
2023-05-24T06:18:08.619Z,14.03
2023-05-24T06:20:39.597Z,14.12
2023-05-24T06:23:10.311Z,14.54
2023-05-24T06:25:43.968Z,14.84
2023-05-24T06:28:14.532Z,15.22
2023-05-24T06:30:45.243Z,15.62
2023-05-24T06:33:19.281Z,15.85
2023-05-24T06:35:49.867Z,16.38
2023-05-24T06:38:20.669Z,16.49
2023-05-24T06:40:51.402Z,16.59
2023-05-24T06:43:21.994Z,16.79
2023-05-24T06:45:52.575Z,17.23
2023-05-24T06:48:26.836Z,17.62
2023-05-24T06:50:57.459Z,17.68
2023-05-24T06:53:28.067Z,17.91
2023-05-24T06:55:58.925Z,17.46
2023-05-24T06:58:29.731Z,16.49
2023-05-24T07:01:00.352Z,16.36
2023-05-24T07:03:33.637Z,16.20
2023-05-24T07:06:04.401Z,16.12
2023-05-24T07:08:34.945Z,16.28
2023-05-24T07:11:06.452Z,15.73
2023-05-24T07:13:37.124Z,15.91
2023-05-24T07:16:08.945Z,16.06
2023-05-24T07:18:42.226Z,15.72
2023-05-24T07:21:12.843Z,15.54
2023-05-24T07:23:43.452Z,15.45
2023-05-24T07:26:14.121Z,14.95
2023-05-24T07:28:44.659Z,13.95
2023-05-24T07:31:15.239Z,13.89
2023-05-24T07:33:48.439Z,13.28
2023-05-24T07:36:19.069Z,13.02
2023-05-24T07:38:49.617Z,13.15
2023-05-24T07:41:20.187Z,13.19
2023-05-24T07:43:51.131Z,13.11
2023-05-24T07:46:21.787Z,13.12
2023-05-24T07:48:54.939Z,12.95
2023-05-24T07:51:25.793Z,13.09
2023-05-24T07:53:56.549Z,13.62
2023-05-24T07:56:27.125Z,13.94
2023-05-24T07:59:04.018Z,14.44
2023-05-24T08:01:35.262Z,15.00
2023-05-24T08:04:08.987Z,15.52
2023-05-24T08:06:39.708Z,15.62
2023-05-24T08:09:11.598Z,15.69
2023-05-24T08:11:42.256Z,15.30
2023-05-24T08:14:12.948Z,14.73
2023-05-24T08:16:43.577Z,14.52
2023-05-24T08:19:16.862Z,15.05
2023-05-24T08:21:47.427Z,15.38
2023-05-24T08:24:18.087Z,15.19
2023-05-24T08:26:48.638Z,14.79
2023-05-24T08:29:19.725Z,14.99
2023-05-24T08:31:53.267Z,14.48
2023-05-24T08:34:26.975Z,14.45
2023-05-24T08:36:58.014Z,15.06
2023-05-24T08:39:28.596Z,15.53
2023-05-24T08:42:09.268Z,15.29
2023-05-24T08:44:49.903Z,15.64
2023-05-24T08:47:22.984Z,15.79
2023-05-24T08:49:58.458Z,15.75
2023-05-24T08:52:30.962Z,16.78
2023-05-24T08:55:03.146Z,16.93
2023-05-24T08:57:35.663Z,16.87
2023-05-24T09:00:09.561Z,16.94
2023-05-24T09:02:42.457Z,17.58
2023-05-24T09:05:17.659Z,17.33
2023-05-24T09:07:49.140Z,17.53
2023-05-24T09:10:22.279Z,17.11
2023-05-24T09:12:59.208Z,16.78
2023-05-24T09:15:29.818Z,16.75
2023-05-24T09:18:00.531Z,16.50
2023-05-24T09:20:34.378Z,15.40
2023-05-24T09:23:07.735Z,15.05
2023-05-24T09:25:38.663Z,15.50
2023-05-24T09:28:10.633Z,16.09
2023-05-24T09:30:41.362Z,16.12
2023-05-24T09:33:13.132Z,15.92
2023-05-24T09:35:49.307Z,15.71
2023-05-24T09:38:21.359Z,16.04
2023-05-24T09:41:00.587Z,16.55
2023-05-24T09:43:33.142Z,16.53
2023-05-24T09:46:06.743Z,16.60
2023-05-24T09:48:37.429Z,16.87
2023-05-24T09:51:11.928Z,16.89
2023-05-24T09:53:48.411Z,16.74
2023-05-24T09:56:19.165Z,16.55
2023-05-24T09:58:49.799Z,16.50
2023-05-24T10:01:21.098Z,16.41
2023-05-24T10:03:59.335Z,16.35
2023-05-24T10:06:37.213Z,16.49
2023-05-24T10:09:09.561Z,16.94
2023-05-24T10:11:40.995Z,16.44
2023-05-24T10:14:13.126Z,16.83
2023-05-24T10:16:43.786Z,16.22
2023-05-24T10:19:14.711Z,16.32
2023-05-24T10:21:48.294Z,16.06
2023-05-24T10:24:22.113Z,16.37
2023-05-24T10:26:54.549Z,16.36
2023-05-24T10:29:40.754Z,16.27
2023-05-24T10:32:12.270Z,16.23
2023-05-24T10:34:43.734Z,15.91
2023-05-24T10:37:17.246Z,15.62
2023-05-24T10:39:48.087Z,15.63
2023-05-24T10:42:18.721Z,14.91
2023-05-24T10:44:49.327Z,14.95
2023-05-24T10:47:23.106Z,14.80
2023-05-24T10:49:55.433Z,14.12
2023-05-24T10:52:37.982Z,13.76
2023-05-24T10:55:10.654Z,14.04
2023-05-24T10:57:42.618Z,14.20
2023-05-24T11:00:35.760Z,14.38
2023-05-24T11:03:11.118Z,14.38
2023-05-24T11:05:54.834Z,14.44
2023-05-24T11:08:33.450Z,14.68
2023-05-24T11:11:23.184Z,14.28
2023-05-24T11:13:59.962Z,14.05
2023-05-24T11:16:39.498Z,13.73
2023-05-24T11:19:20.474Z,13.62
2023-05-24T11:21:53.978Z,14.40
2023-05-24T11:24:28.217Z,14.86
2023-05-24T11:26:59.718Z,15.40
2023-05-24T11:29:30.628Z,15.89
2023-05-24T11:32:05.395Z,16.23
2023-05-24T11:34:36.861Z,16.41
2023-05-24T11:37:07.992Z,16.60
2023-05-24T11:39:41.563Z,17.07
2023-05-24T11:42:12.764Z,17.91
2023-05-24T11:44:43.523Z,17.96
2023-05-24T11:47:15.948Z,18.17
2023-05-24T11:49:47.251Z,18.42
2023-05-24T11:52:17.897Z,18.00
2023-05-24T11:54:52.398Z,18.75
2023-05-24T11:57:28.497Z,19.13
2023-05-24T11:59:59.788Z,19.55
2023-05-24T12:02:33.743Z,19.64
2023-05-24T12:05:14.256Z,20.20
2023-05-24T12:07:48.994Z,20.34
2023-05-24T12:10:23.132Z,19.32
2023-05-24T12:12:53.884Z,19.24
2023-05-24T12:15:25.470Z,19.60
2023-05-24T12:17:56.800Z,20.19
2023-05-24T12:20:30.107Z,20.26
2023-05-24T12:23:00.802Z,20.97
2023-05-24T12:25:34.076Z,21.95
2023-05-24T12:28:06.208Z,24.14
2023-05-24T12:30:36.814Z,25.73
2023-05-24T12:33:07.490Z,26.36
2023-05-24T12:35:38.468Z,24.76
2023-05-24T12:38:13.314Z,25.48
2023-05-24T12:40:57.072Z,25.74
2023-05-24T12:43:39.661Z,22.39
2023-05-24T12:46:10.294Z,21.37
2023-05-24T12:48:40.964Z,21.26
2023-05-24T12:51:12.113Z,22.45
2023-05-24T12:53:43.578Z,22.39
2023-05-24T12:56:16.942Z,23.03
2023-05-24T12:58:47.591Z,23.60
2023-05-24T13:01:18.364Z,24.78
2023-05-24T13:03:49.030Z,25.49
2023-05-24T13:06:19.754Z,24.61
2023-05-24T13:08:50.521Z,22.88
2023-05-24T13:11:25.374Z,22.16
2023-05-24T13:13:56.214Z,22.10
2023-05-24T13:16:26.983Z,21.47
2023-05-24T13:18:58.038Z,22.67
2023-05-24T13:21:29.455Z,24.23
2023-05-24T13:24:00.282Z,23.59
2023-05-24T13:26:37.711Z,23.31
2023-05-24T13:31:43.700Z,25.15
2023-05-24T13:34:14.631Z,26.29
2023-05-24T13:36:46.242Z,27.79
2023-05-24T13:39:16.956Z,28.86
2023-05-24T13:41:50.504Z,28.46
2023-05-24T13:44:21.624Z,26.05
2023-05-24T13:46:52.426Z,23.94
2023-05-24T13:49:23.166Z,24.33
2023-05-24T13:51:56.394Z,26.02
2023-05-24T13:54:29.178Z,27.37
2023-05-24T13:57:02.918Z,25.12
2023-05-24T13:59:33.621Z,24.25
2023-05-24T14:02:04.484Z,24.03
2023-05-24T14:04:35.206Z,21.83
2023-05-24T14:07:08.585Z,20.31
2023-05-24T14:09:39.183Z,21.06
2023-05-24T14:12:14.001Z,20.17
2023-05-24T14:17:19.778Z,21.01
2023-05-24T14:19:50.356Z,21.20
2023-05-24T14:22:22.946Z,23.10
2023-05-24T14:24:53.852Z,22.15
2023-05-24T14:27:27.048Z,23.83
2023-05-24T14:29:57.650Z,22.53
2023-05-24T14:32:28.358Z,21.57
2023-05-24T14:34:59.129Z,22.75
2023-05-24T14:37:30.125Z,22.62
2023-05-24T14:40:00.888Z,22.02
2023-05-24T14:42:34.158Z,21.26
2023-05-24T14:45:05.104Z,21.09
2023-05-24T14:47:35.967Z,23.30
2023-05-24T14:50:06.821Z,24.76
2023-05-24T14:52:37.374Z,25.16
2023-05-24T14:55:09.007Z,25.21
2023-05-24T14:57:42.197Z,25.97
2023-05-24T15:00:14.544Z,25.48
2023-05-24T15:02:45.373Z,23.11
2023-05-24T15:05:16.311Z,25.04
2023-05-24T15:07:46.932Z,24.25
2023-05-24T15:10:17.600Z,24.95
2023-05-24T15:12:52.171Z,26.57
2023-05-24T15:15:24.581Z,25.41
2023-05-24T15:17:55.291Z,24.14
2023-05-24T15:20:26.265Z,22.82
2023-05-24T15:22:57.235Z,24.32
2023-05-24T15:25:28.101Z,26.18
2023-05-24T15:28:01.511Z,26.90
2023-05-24T15:30:32.186Z,27.74
2023-05-24T15:33:02.838Z,27.12
2023-05-24T15:35:33.692Z,27.83
2023-05-24T15:38:04.321Z,28.56
2023-05-24T15:40:35.346Z,30.19
2023-05-24T15:43:08.567Z,29.88
2023-05-24T15:45:40.649Z,29.52
2023-05-24T15:48:11.360Z,29.26
2023-05-24T15:53:15.526Z,27.80
2023-05-24T15:55:47.240Z,27.84
2023-05-24T15:58:20.525Z,25.08
2023-05-24T16:00:51.365Z,26.47
2023-05-24T16:03:22.049Z,26.73
2023-05-24T16:05:52.734Z,25.75
2023-05-24T16:08:27.728Z,25.20
2023-05-24T16:10:58.599Z,21.91
2023-05-24T16:13:32.476Z,21.54
2023-05-24T16:16:03.608Z,20.49
2023-05-24T16:18:35.573Z,20.04
2023-05-24T16:21:06.915Z,19.38
2023-05-24T16:23:37.534Z,18.73
2023-05-24T16:26:08.144Z,17.41
2023-05-24T16:28:41.351Z,17.51
2023-05-24T16:31:11.914Z,17.46
2023-05-24T16:33:42.754Z,17.10
2023-05-24T16:36:13.562Z,16.91
2023-05-24T16:38:44.338Z,16.92
2023-05-24T16:41:14.944Z,17.03
2023-05-24T16:43:48.293Z,16.91
2023-05-24T16:46:19.100Z,16.96
2023-05-24T16:48:49.832Z,16.81
2023-05-24T16:51:20.658Z,16.39
2023-05-24T16:53:51.335Z,16.38
2023-05-24T16:56:23.265Z,16.61
2023-05-24T16:58:56.454Z,16.67
2023-05-24T17:01:27.111Z,16.38
2023-05-24T17:03:57.794Z,16.40
2023-05-24T17:06:28.482Z,16.47
2023-05-24T17:08:59.370Z,16.19
2023-05-24T17:11:30.004Z,15.71
2023-05-24T17:14:03.464Z,17.05
2023-05-24T17:16:34.205Z,18.33
2023-05-24T17:19:05.057Z,20.13
2023-05-24T17:21:37.006Z,20.89
2023-05-24T17:24:07.849Z,21.77
2023-05-24T17:26:39.203Z,22.16
2023-05-24T17:29:12.575Z,22.29
2023-05-24T17:31:43.252Z,22.49
2023-05-24T17:34:15.036Z,20.88
2023-05-24T17:36:45.655Z,20.79
2023-05-24T17:39:17.519Z,21.25
2023-05-24T17:41:48.272Z,22.93
2023-05-24T17:44:21.481Z,22.47
2023-05-24T17:46:52.082Z,21.40
2023-05-24T17:49:22.739Z,21.81
2023-05-24T17:51:53.346Z,21.64
2023-05-24T17:54:24.052Z,21.79
2023-05-24T17:56:54.636Z,22.69
2023-05-24T17:59:27.883Z,22.00
2023-05-24T18:01:58.459Z,20.73
2023-05-24T18:04:29.450Z,18.56
2023-05-24T18:07:00.107Z,17.37
2023-05-24T18:09:30.791Z,17.43
2023-05-24T18:12:01.970Z,17.00
2023-05-24T18:14:35.323Z,16.63
2023-05-24T18:17:06.108Z,16.73
2023-05-24T18:19:36.713Z,17.57
2023-05-24T18:22:07.880Z,17.20
2023-05-24T18:24:38.448Z,16.49
2023-05-24T18:27:09.247Z,15.69
2023-05-24T18:29:42.466Z,15.21
2023-05-24T18:32:13.149Z,14.60
2023-05-24T18:34:43.772Z,14.22
2023-05-24T18:37:14.443Z,14.17
2023-05-24T18:39:45.155Z,13.73
2023-05-24T18:42:15.731Z,13.50
2023-05-24T18:44:48.955Z,13.31
2023-05-24T18:47:19.653Z,13.13
2023-05-24T18:49:50.287Z,12.91
2023-05-24T18:52:21.446Z,12.75
2023-05-24T18:54:52.031Z,12.67
2023-05-24T18:57:22.673Z,12.53
2023-05-24T18:59:55.909Z,12.39
2023-05-24T19:02:26.760Z,12.21
2023-05-24T19:04:58.300Z,12.06
2023-05-24T19:07:28.884Z,11.95
2023-05-24T19:09:59.456Z,11.85
2023-05-24T19:12:30.404Z,11.82
2023-05-24T19:15:04.261Z,11.69
2023-05-24T19:17:34.901Z,11.58
2023-05-24T19:20:05.585Z,11.36
2023-05-24T19:22:36.177Z,11.20
2023-05-24T19:25:06.949Z,11.22
2023-05-24T19:27:39.798Z,11.11
2023-05-24T19:30:19.233Z,10.98
2023-05-24T19:32:50.112Z,10.88
2023-05-24T19:35:21.171Z,10.80
2023-05-24T19:37:52.711Z,10.85
2023-05-24T19:40:23.670Z,10.85
2023-05-24T19:42:54.195Z,10.95
2023-05-24T19:45:27.706Z,11.10
2023-05-24T19:47:58.370Z,11.04
2023-05-24T19:50:31.305Z,11.03
2023-05-24T19:53:02.142Z,10.93
2023-05-24T19:55:32.899Z,10.80
2023-05-24T19:58:03.622Z,10.85
2023-05-24T20:00:37.380Z,11.03
2023-05-24T20:03:08.149Z,11.09
2023-05-24T20:05:38.837Z,10.94
2023-05-24T20:08:09.434Z,10.83
2023-05-24T20:10:40.290Z,10.69
2023-05-24T20:13:10.956Z,10.54
2023-05-24T20:15:44.634Z,10.42
2023-05-24T20:18:15.418Z,10.36
2023-05-24T20:20:45.976Z,10.27
2023-05-24T20:23:16.550Z,10.24
2023-05-24T20:25:47.138Z,10.19
2023-05-24T20:28:29.544Z,10.09
2023-05-24T20:31:04.313Z,10.11
2023-05-24T20:33:38.508Z,10.16
2023-05-24T20:36:09.990Z,10.28
2023-05-24T20:38:40.680Z,10.38
2023-05-24T20:41:11.230Z,10.45
2023-05-24T20:43:41.796Z,10.55
2023-05-24T20:46:15.893Z,10.63
2023-05-24T20:48:46.824Z,10.71
2023-05-24T20:51:18.813Z,10.80
2023-05-24T20:53:52.234Z,10.83
2023-05-24T20:56:23.997Z,10.91
2023-05-24T20:58:56.754Z,10.99
2023-05-24T21:01:30.012Z,11.05
2023-05-24T21:04:00.659Z,11.19
2023-05-24T21:06:33.961Z,11.26
2023-05-24T21:09:04.900Z,11.31
2023-05-24T21:11:35.631Z,11.31
2023-05-24T21:14:06.221Z,11.22
2023-05-24T21:16:39.444Z,11.23
2023-05-24T21:19:10.030Z,11.33
2023-05-24T21:21:40.664Z,11.27
2023-05-24T21:24:11.505Z,11.32
2023-05-24T21:26:42.107Z,11.33
2023-05-24T21:29:15.635Z,11.33
2023-05-24T21:31:49.143Z,11.41
2023-05-24T21:34:19.732Z,11.54
2023-05-24T21:36:50.537Z,11.53
2023-05-24T21:39:21.635Z,11.54
2023-05-24T21:41:52.268Z,11.55
2023-05-24T21:44:22.820Z,11.50
2023-05-24T21:46:56.203Z,11.52
2023-05-24T21:49:27.676Z,11.55
2023-05-24T21:51:58.290Z,11.58
2023-05-24T21:54:28.900Z,11.59
2023-05-24T21:56:59.487Z,11.63
2023-05-24T21:59:30.163Z,11.67
2023-05-24T22:02:03.497Z,11.70
2023-05-24T22:04:34.164Z,11.66
2023-05-24T22:07:04.764Z,11.70
2023-05-24T22:09:35.377Z,11.69
2023-05-24T22:12:06.356Z,11.68
2023-05-24T22:14:36.956Z,11.67
2023-05-24T22:17:10.293Z,11.50
2023-05-24T22:19:41.500Z,11.46
2023-05-24T22:22:12.762Z,11.43
2023-05-24T22:24:44.263Z,11.34
2023-05-24T22:27:14.879Z,11.23
2023-05-24T22:29:45.468Z,11.10
2023-05-24T22:32:18.764Z,10.98
2023-05-24T22:34:49.333Z,11.01
2023-05-24T22:37:19.921Z,11.03
2023-05-24T22:39:50.558Z,11.14
2023-05-24T22:42:21.949Z,11.08
2023-05-24T22:44:53.506Z,10.90
2023-05-24T22:47:26.925Z,10.86
2023-05-24T22:49:58.070Z,10.71
2023-05-24T22:52:28.713Z,10.57
2023-05-24T22:54:59.314Z,10.32
2023-05-24T22:57:30.094Z,10.18
2023-05-24T23:00:01.162Z,10.06
2023-05-24T23:02:36.378Z,9.80
2023-05-24T23:05:07.566Z,9.74
2023-05-24T23:07:39.976Z,9.68
2023-05-24T23:10:12.033Z,9.53
2023-05-24T23:12:44.706Z,9.36
2023-05-24T23:15:16.959Z,9.26
2023-05-24T23:17:52.982Z,9.24
2023-05-24T23:20:23.907Z,9.17
2023-05-24T23:22:54.721Z,9.10
2023-05-24T23:25:25.439Z,9.05
2023-05-24T23:27:56.003Z,8.98
2023-05-24T23:30:26.613Z,8.97
2023-05-24T23:32:59.884Z,8.94
2023-05-24T23:35:30.515Z,8.91
2023-05-24T23:38:01.128Z,8.92
2023-05-24T23:40:31.726Z,9.02
2023-05-24T23:43:02.317Z,8.95
2023-05-24T23:45:33.166Z,8.91
2023-05-24T23:48:06.696Z,8.87
2023-05-24T23:50:50.283Z,8.71
2023-05-24T23:53:24.483Z,8.94
2023-05-24T23:55:55.169Z,8.88
2023-05-24T23:58:25.765Z,8.90
